Time;durP1;ratioP1;P1;durP2;ratioP2;P2;SDS_P1;SDS_P2;PMS_P1;PMS_P2;Temp;Humidity;BMP_temperature;BMP_pressure;BME280_temperature;BME280_humidity;BME280_pressure;Samples;Min_cycle;Max_cycle;Signal;HPM_P1;HPM_P2
2023/09/23 00:01:04;;;;;;;4.97;2.17;;;12.70;99.90;;;;;;4798038;29;20039;-78
2023/09/23 00:03:33;;;;;;;5.28;2.03;;;12.60;99.90;;;;;;4803101;29;20496;-79
2023/09/23 00:06:00;;;;;;;3.00;2.55;;;12.60;99.90;;;;;;4834320;29;20068;-77
2023/09/23 00:08:27;;;;;;;3.78;1.77;;;12.60;99.90;;;;;;4825719;29;20042;-80
2023/09/23 00:10:53;;;;;;;3.33;1.60;;;12.50;99.90;;;;;;4832795;29;20074;-78
2023/09/23 00:13:21;;;;;;;4.15;1.80;;;12.50;99.90;;;;;;4801916;29;20197;-80
2023/09/23 00:15:49;;;;;;;3.08;1.65;;;12.50;99.90;;;;;;4824826;29;20077;-77
2023/09/23 00:18:17;;;;;;;3.67;1.88;;;12.50;99.90;;;;;;4816014;29;20517;-78
2023/09/23 00:20:47;;;;;;;1.65;1.52;;;12.40;99.90;;;;;;4833025;29;20051;-79
2023/09/23 00:23:14;;;;;;;1.30;1.08;;;12.30;99.90;;;;;;4797410;29;20045;-78
2023/09/23 00:25:39;;;;;;;3.13;1.10;;;12.30;99.90;;;;;;4825230;29;20079;-78
2023/09/23 00:28:10;;;;;;;3.85;1.20;;;12.30;99.90;;;;;;4832183;29;20077;-80
2023/09/23 00:30:39;;;;;;;1.33;0.80;;;12.20;99.90;;;;;;4818178;29;20118;-79
2023/09/23 00:33:06;;;;;;;0.73;0.70;;;12.20;99.90;;;;;;4817577;29;20865;-78
2023/09/23 00:35:36;;;;;;;1.75;0.68;;;12.20;99.90;;;;;;4804249;29;20090;-77
2023/09/23 00:38:04;;;;;;;3.30;0.70;;;13.50;99.90;;;;;;4815736;29;20119;-77
2023/09/23 00:40:32;;;;;;;4.13;0.77;;;12.10;99.90;;;;;;4825606;29;20046;-79
2023/09/23 00:43:07;;;;;;;3.25;0.70;;;12.10;99.90;;;;;;4802078;29;20081;-77
2023/09/23 00:45:34;;;;;;;1.58;0.82;;;12.10;99.90;;;;;;4801148;29;20050;-77
2023/09/23 00:47:59;;;;;;;1.13;0.85;;;12.10;99.90;;;;;;4818127;29;20053;-78
2023/09/23 00:50:26;;;;;;;1.60;0.73;;;13.30;99.90;;;;;;4816141;29;20058;-77
2023/09/23 00:52:53;;;;;;;3.35;1.20;;;12.10;99.90;;;;;;4825336;29;20054;-77
2023/09/23 00:55:25;;;;;;;2.53;0.85;;;12.10;99.90;;;;;;4832480;29;20472;-77
2023/09/23 00:57:55;;;;;;;1.80;0.80;;;13.00;99.90;;;;;;4809292;29;20054;-77
2023/09/23 01:00:27;;;;;;;1.27;0.70;;;12.10;99.90;;;;;;4826088;29;20526;-77
2023/09/23 01:02:55;;;;;;;2.97;0.82;;;12.10;99.90;;;;;;4849949;29;20050;-78
2023/09/23 01:05:23;;;;;;;2.63;0.68;;;12.10;99.90;;;;;;4831944;29;20050;-77
2023/09/23 01:07:49;;;;;;;1.63;0.50;;;12.00;99.90;;;;;;4831911;29;20038;-77
2023/09/23 01:10:19;;;;;;;0.85;0.50;;;12.10;99.90;;;;;;4812109;29;20058;-77
2023/09/23 01:12:47;;;;;;;5.07;0.70;;;12.10;99.90;;;;;;4831131;29;20046;-77
2023/09/23 01:15:16;;;;;;;1.40;0.63;;;12.10;99.90;;;;;;4818389;29;20428;-77
2023/09/23 01:17:52;;;;;;;1.13;0.57;;;12.00;99.90;;;;;;4825670;29;20054;-77
2023/09/23 01:20:18;;;;;;;1.00;0.65;;;12.00;99.90;;;;;;4795323;29;20468;-78
2023/09/23 01:22:46;;;;;;;1.75;0.73;;;12.00;99.90;;;;;;4794563;29;20075;-77
2023/09/23 01:25:11;;;;;;;2.67;0.70;;;12.00;99.90;;;;;;4827206;29;20050;-78
2023/09/23 01:27:37;;;;;;;2.55;0.55;;;12.60;99.90;;;;;;4799188;29;20070;-77
2023/09/23 01:30:06;;;;;;;2.83;0.65;;;12.00;99.90;;;;;;4800979;29;20158;-77
2023/09/23 01:32:45;;;;;;;1.83;0.73;;;12.00;99.90;;;;;;4800747;29;20445;-77
2023/09/23 01:35:11;;;;;;;2.35;0.60;;;12.00;99.90;;;;;;4835394;29;20060;-78
2023/09/23 01:37:37;;;;;;;2.35;0.65;;;12.00;99.90;;;;;;4819779;29;20050;-79
2023/09/23 01:40:05;;;;;;;0.95;0.57;;;12.10;99.90;;;;;;4839565;29;20050;-76
2023/09/23 01:42:32;;;;;;;3.05;1.02;;;12.10;99.90;;;;;;4817190;29;20616;-78
2023/09/23 01:44:58;;;;;;;1.55;0.80;;;12.20;99.90;;;;;;4817335;29;20114;-78
2023/09/23 01:47:25;;;;;;;1.25;0.63;;;12.20;99.90;;;;;;4831689;29;20051;-77
2023/09/23 01:49:51;;;;;;;3.00;0.40;;;12.20;99.90;;;;;;4801117;29;20050;-78
2023/09/23 01:52:17;;;;;;;1.77;0.40;;;12.20;99.90;;;;;;4832835;29;20157;-78
2023/09/23 01:54:44;;;;;;;3.22;0.88;;;12.10;99.90;;;;;;4830840;29;20831;-77
2023/09/23 01:57:16;;;;;;;5.82;0.50;;;12.20;99.90;;;;;;4831295;29;20042;-78
2023/09/23 01:59:45;;;;;;;1.67;0.68;;;12.20;99.90;;;;;;4796472;29;20065;-77
2023/09/23 02:02:11;;;;;;;1.27;0.85;;;12.20;99.90;;;;;;4831374;29;20059;-78
2023/09/23 02:04:40;;;;;;;3.08;1.10;;;12.20;99.90;;;;;;4840382;29;20053;-78
2023/09/23 02:07:07;;;;;;;1.35;0.90;;;12.20;99.90;;;;;;4831456;29;20054;-78
2023/09/23 02:09:37;;;;;;;3.92;0.77;;;12.10;99.90;;;;;;4810184;29;20085;-79
2023/09/23 02:12:03;;;;;;;1.38;0.93;;;12.40;99.90;;;;;;4793770;29;20054;-77
2023/09/23 02:14:30;;;;;;;1.35;0.88;;;12.20;99.90;;;;;;4798950;29;20081;-80
2023/09/23 02:16:57;;;;;;;3.47;1.30;;;;;;;;;;4818496;29;20035;-80
2023/09/23 02:19:24;;;;;;;3.45;1.65;;;12.20;99.90;;;;;;4836527;29;20673;-78
2023/09/23 02:21:51;;;;;;;1.45;1.35;;;12.20;99.90;;;;;;4795002;29;20042;-79
2023/09/23 02:24:20;;;;;;;3.45;1.83;;;12.20;99.90;;;;;;4802066;29;20121;-78
2023/09/23 02:26:46;;;;;;;3.55;2.28;;;12.10;99.90;;;;;;4833854;29;20038;-78
2023/09/23 02:29:15;;;;;;;5.18;2.17;;;12.20;99.90;;;;;;4803760;29;20117;-81
2023/09/23 02:31:46;;;;;;;2.90;2.70;;;13.60;99.90;;;;;;4802766;29;20529;-78
2023/09/23 02:34:16;;;;;;;3.08;2.83;;;12.10;99.90;;;;;;4834078;29;20046;-79
2023/09/23 02:36:46;;;;;;;4.38;4.07;;;12.10;99.90;;;;;;4843559;29;20058;-80
2023/09/23 02:39:20;;;;;;;3.58;3.38;;;12.20;99.90;;;;;;4835248;29;20086;-78
2023/09/23 02:41:46;;;;;;;;;;;12.10;99.90;;;;;;4802679;29;20050;-78
2023/09/23 02:44:18;;;;;;;6.05;4.30;;;12.10;99.90;;;;;;4828846;29;20333;-79
2023/09/23 02:46:48;;;;;;;5.25;4.57;;;12.00;99.90;;;;;;4833353;29;20228;-78
2023/09/23 02:49:14;;;;;;;5.78;5.20;;;12.00;99.90;;;;;;4803298;29;20049;-77
2023/09/23 02:51:44;;;;;;;6.13;5.13;;;12.00;99.90;;;;;;4803117;29;20049;-78
2023/09/23 02:54:13;;;;;;;5.38;4.93;;;12.00;99.90;;;;;;4802962;29;20068;-78
2023/09/23 02:56:40;;;;;;;7.60;4.88;;;13.00;99.90;;;;;;4815712;29;20141;-78
2023/09/23 02:59:21;;;;;;;5.22;4.82;;;12.00;99.90;;;;;;4831074;29;20034;-79
2023/09/23 03:01:53;;;;;;;5.90;5.30;;;12.00;99.90;;;;;;4832333;29;20107;-79
2023/09/23 03:04:25;;;;;;;5.97;4.78;;;11.90;99.90;;;;;;4802904;29;20141;-78
2023/09/23 03:06:59;;;;;;;9.43;5.57;;;11.90;99.90;;;;;;4816018;29;20531;-78
2023/09/23 03:09:25;;;;;;;8.23;5.40;;;11.90;99.90;;;;;;4836230;29;20046;-78
2023/09/23 03:12:11;;;;;;;5.88;5.00;;;11.90;99.90;;;;;;4838699;29;20058;-78
2023/09/23 03:14:42;;;;;;;6.03;5.53;;;11.90;99.90;;;;;;4841289;29;20054;-78
2023/09/23 03:17:09;;;;;;;5.32;4.75;;;11.90;99.90;;;;;;4802910;29;20054;-80
2023/09/23 03:19:36;;;;;;;7.55;4.80;;;11.90;99.90;;;;;;4832372;29;20195;-83
2023/09/23 03:22:02;;;;;;;5.97;5.30;;;11.90;99.90;;;;;;4802903;29;20111;-79
2023/09/23 03:24:37;;;;;;;5.47;4.63;;;11.80;99.90;;;;;;4805263;29;20050;-78
2023/09/23 03:27:05;;;;;;;5.32;4.82;;;11.90;99.90;;;;;;4819064;29;20061;-79
2023/09/23 03:29:34;;;;;;;6.90;5.22;;;11.80;99.90;;;;;;4829178;29;20486;-78
2023/09/23 03:32:00;;;;;;;6.75;5.65;;;11.80;99.90;;;;;;4830357;29;20104;-79
2023/09/23 03:34:26;;;;;;;5.72;5.22;;;12.20;99.90;;;;;;4794459;29;20149;-81
2023/09/23 03:36:53;;;;;;;6.00;5.40;;;12.90;99.90;;;;;;4833047;29;20034;-78
2023/09/23 03:39:20;;;;;;;6.68;4.68;;;11.70;99.90;;;;;;4834658;29;20107;-77
2023/09/23 03:41:46;;;;;;;5.38;4.88;;;11.70;99.90;;;;;;4828052;29;20042;-77
2023/09/23 03:44:21;;;;;;;6.38;4.57;;;11.70;99.90;;;;;;4823356;29;20061;-78
2023/09/23 03:46:48;;;;;;;5.22;4.72;;;11.70;99.90;;;;;;4801761;29;20046;-81
2023/09/23 03:49:13;;;;;;;5.55;4.90;;;11.70;99.90;;;;;;4829594;29;20078;-79
2023/09/23 03:51:40;;;;;;;6.35;5.70;;;11.60;99.90;;;;;;4824799;29;20480;-78
2023/09/23 03:54:06;;;;;;;8.77;5.70;;;12.40;99.90;;;;;;4795844;29;20053;-79
2023/09/23 03:56:34;;;;;;;5.95;5.32;;;11.60;99.90;;;;;;4826577;29;20054;-78
2023/09/23 03:59:05;;;;;;;6.35;5.70;;;11.60;99.90;;;;;;4796348;29;20055;-78
2023/09/23 04:01:31;;;;;;;5.40;4.90;;;10.30;99.90;;;;;;4796368;29;20115;-78
2023/09/23 04:03:57;;;;;;;5.90;5.40;;;11.50;99.90;;;;;;4833165;29;20042;-79
2023/09/23 04:06:23;;;;;;;6.85;6.18;;;11.50;99.90;;;;;;4833728;29;20050;-78
2023/09/23 04:08:49;;;;;;;5.88;5.38;;;11.50;99.90;;;;;;4793917;29;20058;-79
2023/09/23 04:11:15;;;;;;;5.78;5.28;;;11.50;99.90;;;;;;4823428;29;20402;-80
2023/09/23 04:13:45;;;;;;;6.63;6.10;;;11.40;99.90;;;;;;4793491;29;20062;-79
2023/09/23 04:16:11;;;;;;;6.63;5.97;;;11.50;99.90;;;;;;4811242;29;20054;-79
2023/09/23 04:18:37;;;;;;;6.95;5.78;;;11.50;99.90;;;;;;4832640;29;20083;-81
2023/09/23 04:21:03;;;;;;;6.47;5.70;;;12.20;99.90;;;;;;4833423;29;20073;-80
2023/09/23 04:23:29;;;;;;;5.75;5.20;;;11.40;99.90;;;;;;4826828;29;20061;-78
2023/09/23 04:25:56;;;;;;;6.85;5.85;;;11.30;99.90;;;;;;4830252;29;20517;-80
2023/09/23 04:28:25;;;;;;;5.68;5.18;;;11.30;99.90;;;;;;4833463;29;20129;-79
2023/09/23 04:30:54;;;;;;;5.90;5.40;;;11.30;99.90;;;;;;4816300;29;20085;-78
2023/09/23 04:33:20;;;;;;;6.75;5.57;;;12.50;99.90;;;;;;4803689;29;20491;-80
2023/09/23 04:35:49;;;;;;;6.25;5.68;;;11.30;99.90;;;;;;4847025;29;20097;-79
2023/09/23 04:38:15;;;;;;;8.18;5.40;;;11.30;99.90;;;;;;4843896;29;20138;-79
2023/09/23 04:40:42;;;;;;;5.70;5.13;;;11.30;99.90;;;;;;4832490;29;20137;-78
2023/09/23 04:43:10;;;;;;;9.43;5.20;;;11.30;99.90;;;;;;4815823;29;20038;-79
2023/09/23 04:45:37;;;;;;;5.78;5.15;;;12.60;99.90;;;;;;4833090;29;20050;-82
2023/09/23 04:48:06;;;;;;;5.72;5.25;;;11.30;99.90;;;;;;4823437;29;20055;-79
2023/09/23 04:50:32;;;;;;;7.45;5.22;;;11.30;99.90;;;;;;4837210;29;20070;-80
2023/09/23 04:52:59;;;;;;;6.57;5.93;;;12.40;99.90;;;;;;4839407;29;20117;-78
2023/09/23 04:55:28;;;;;;;6.05;5.30;;;11.30;99.90;;;;;;4817068;29;20065;-82
2023/09/23 04:57:57;;;;;;;5.50;4.85;;;11.30;99.90;;;;;;4802444;29;20503;-82
2023/09/23 05:00:23;;;;;;;6.93;5.88;;;11.20;99.90;;;;;;4817336;29;20050;-81
2023/09/23 05:02:49;;;;;;;5.47;4.80;;;11.30;99.90;;;;;;4826611;29;20046;-81
2023/09/23 05:05:19;;;;;;;6.60;5.85;;;11.20;99.90;;;;;;4833748;29;20050;-80
2023/09/23 05:07:47;;;;;;;9.85;6.28;;;11.30;99.90;;;;;;4798669;29;20103;-82
2023/09/23 05:10:13;;;;;;;9.10;5.57;;;11.20;99.90;;;;;;4800423;29;20071;-81
2023/09/23 05:12:40;;;;;;;7.78;6.00;;;11.20;99.90;;;;;;4817380;29;20050;-79
2023/09/23 05:15:09;;;;;;;6.38;5.78;;;11.40;99.90;;;;;;4832480;29;20392;-80
2023/09/23 05:17:38;;;;;;;8.02;5.82;;;11.20;99.90;;;;;;4803578;29;20503;-79
2023/09/23 05:20:12;;;;;;;8.07;5.70;;;11.20;99.90;;;;;;4806072;29;20077;-82
2023/09/23 05:22:40;;;;;;;6.82;6.22;;;11.20;99.90;;;;;;4831770;29;20226;-80
2023/09/23 05:25:11;;;;;;;6.95;6.25;;;11.20;99.90;;;;;;4816694;29;20129;-81
2023/09/23 05:27:42;;;;;;;6.75;6.15;;;11.20;99.90;;;;;;4815593;29;20111;-79
2023/09/23 05:30:08;;;;;;;6.80;6.20;;;11.20;99.90;;;;;;4799258;29;20519;-80
2023/09/23 05:32:37;;;;;;;6.55;5.88;;;11.10;99.90;;;;;;4815407;29;20496;-78
2023/09/23 05:35:10;;;;;;;7.97;6.07;;;11.10;99.90;;;;;;4819595;29;20046;-78
2023/09/23 05:37:37;;;;;;;6.65;6.00;;;11.10;99.90;;;;;;4820675;29;20049;-78
2023/09/23 05:42:47;;;;;;;8.00;6.80;;;11.10;99.90;;;;;;4810116;29;20512;-80
2023/09/23 05:45:14;;;;;;;6.60;5.82;;;11.10;99.90;;;;;;4799971;29;20079;-82
2023/09/23 05:47:45;;;;;;;10.15;7.18;;;11.10;99.90;;;;;;4801267;29;20051;-81
2023/09/23 05:50:11;;;;;;;6.95;6.10;;;11.10;99.90;;;;;;4802934;29;20042;-79
2023/09/23 05:52:37;;;;;;;8.65;7.80;;;11.10;99.90;;;;;;4829355;29;20046;-81
2023/09/23 05:55:04;;;;;;;8.20;7.40;;;11.10;99.90;;;;;;4826208;29;20062;-81
2023/09/23 05:57:30;;;;;;;12.82;8.23;;;10.40;99.90;;;;;;4798005;29;20064;-82
2023/09/23 05:59:56;;;;;;;9.93;7.80;;;11.00;99.90;;;;;;4842552;29;20147;-84
2023/09/23 06:02:22;;;;;;;8.48;7.78;;;11.70;99.90;;;;;;4814906;29;20096;-82
2023/09/23 06:04:48;;;;;;;10.93;8.68;;;11.00;99.90;;;;;;4811647;29;20055;-83
2023/09/23 06:07:14;;;;;;;9.85;7.78;;;11.00;99.90;;;;;;4826841;29;20042;-79
2023/09/23 06:09:44;;;;;;;9.38;8.32;;;11.10;99.90;;;;;;4827079;29;20058;-79
2023/09/23 06:12:10;;;;;;;8.63;7.78;;;11.10;99.90;;;;;;4801376;29;20051;-80
2023/09/23 06:14:36;;;;;;;11.35;10.15;;;11.10;99.90;;;;;;4828458;29;20059;-82
2023/09/23 06:17:01;;;;;;;11.95;10.32;;;11.10;99.90;;;;;;4805092;29;20046;-79
2023/09/23 06:19:27;;;;;;;10.43;9.48;;;11.10;99.90;;;;;;4829946;29;20086;-82
2023/09/23 06:21:54;;;;;;;12.65;10.07;;;11.10;99.90;;;;;;4791370;29;20077;-82
2023/09/23 06:24:20;;;;;;;10.73;9.48;;;11.10;99.90;;;;;;4830990;29;20108;-80
2023/09/23 06:26:46;;;;;;;13.57;10.45;;;11.10;99.90;;;;;;4795511;29;20058;-81
2023/09/23 06:29:14;;;;;;;11.48;10.27;;;11.10;99.90;;;;;;4810914;29;20529;-79
2023/09/23 06:31:40;;;;;;;12.55;10.95;;;11.10;99.90;;;;;;4801540;29;20038;-80
2023/09/23 06:34:06;;;;;;;17.33;11.70;;;10.90;99.90;;;;;;4825895;29;20077;-80
2023/09/23 06:36:32;;;;;;;13.38;11.48;;;11.20;99.90;;;;;;4789027;29;20092;-81
2023/09/23 06:38:58;;;;;;;14.75;11.48;;;11.20;99.90;;;;;;4788638;29;20058;-81
2023/09/23 06:41:24;;;;;;;15.70;12.00;;;11.20;99.90;;;;;;4829338;29;20043;-81
2023/09/23 06:43:51;;;;;;;19.58;13.85;;;11.20;99.90;;;;;;4803907;29;20053;-83
2023/09/23 06:46:18;;;;;;;16.38;12.85;;;11.20;99.90;;;;;;4819501;29;20103;-80
2023/09/23 06:48:43;;;;;;;16.25;12.75;;;11.30;99.90;;;;;;4832850;29;20094;-81
2023/09/23 06:51:10;;;;;;;20.40;14.10;;;11.30;99.90;;;;;;4818151;29;20055;-82
2023/09/23 06:53:39;;;;;;;15.13;12.85;;;11.30;99.90;;;;;;4818634;29;20094;-82
2023/09/23 06:56:05;;;;;;;16.98;13.35;;;11.40;99.90;;;;;;4819301;29;20165;-79
2023/09/23 06:58:34;;;;;;;20.98;14.55;;;11.30;99.90;;;;;;4816962;29;20046;-82
2023/09/23 07:01:00;;;;;;;18.92;14.80;;;11.40;99.90;;;;;;4819481;29;20098;-83
2023/09/23 07:03:26;;;;;;;18.17;14.75;;;11.40;99.90;;;;;;4797683;29;20042;-82
2023/09/23 07:05:52;;;;;;;18.20;15.25;;;11.80;99.90;;;;;;4792622;29;20050;-83
2023/09/23 07:08:17;;;;;;;17.58;13.95;;;11.50;99.90;;;;;;4819428;29;20499;-82
2023/09/23 07:10:43;;;;;;;17.55;12.98;;;11.50;99.90;;;;;;4834925;29;20058;-83
2023/09/23 07:13:09;;;;;;;19.67;14.48;;;11.80;99.90;;;;;;4819976;29;20050;-80
2023/09/23 07:15:36;;;;;;;20.63;15.23;;;11.60;99.90;;;;;;4833814;29;20079;-83
2023/09/23 07:18:02;;;;;;;18.38;15.05;;;12.00;99.90;;;;;;4802811;29;20049;-79
2023/09/23 07:20:28;;;;;;;19.95;14.50;;;11.60;99.90;;;;;;4835326;29;20065;-82
2023/09/23 07:22:53;;;;;;;19.42;15.07;;;11.70;99.90;;;;;;4157622;29;10000786;-87
2023/09/23 07:25:19;;;;;;;23.45;16.35;;;11.80;99.90;;;;;;4830126;29;20133;-77
2023/09/23 07:27:46;;;;;;;21.40;15.00;;;11.70;99.90;;;;;;4830651;29;20090;-77
2023/09/23 07:30:12;;;;;;;20.15;14.63;;;11.80;99.90;;;;;;4801478;29;20054;-80
2023/09/23 07:32:38;;;;;;;18.88;15.00;;;11.90;99.90;;;;;;4799755;29;20396;-83
2023/09/23 07:35:04;;;;;;;18.92;13.90;;;12.00;99.90;;;;;;4801259;29;20058;-84
2023/09/23 07:37:30;;;;;;;21.80;15.15;;;12.00;99.90;;;;;;4801285;29;20046;-80
2023/09/23 07:39:55;;;;;;;19.92;15.00;;;12.10;99.90;;;;;;4799919;29;20092;-82
2023/09/23 07:42:21;;;;;;;18.33;14.15;;;12.20;99.90;;;;;;4815949;29;20054;-82
2023/09/23 07:44:47;;;;;;;19.40;13.88;;;12.20;99.90;;;;;;4831164;29;20053;-81
2023/09/23 07:47:13;;;;;;;18.88;15.07;;;12.30;99.90;;;;;;4831882;29;20429;-81
2023/09/23 07:49:42;;;;;;;21.73;13.82;;;12.40;99.90;;;;;;4816163;29;20058;-81
2023/09/23 07:52:07;;;;;;;20.13;13.57;;;12.50;99.90;;;;;;4801248;29;20048;-81
2023/09/23 07:54:33;;;;;;;20.52;13.85;;;12.50;99.90;;;;;;4832391;29;20053;-81
2023/09/23 07:56:59;;;;;;;16.80;12.27;;;12.60;99.90;;;;;;4824851;29;20053;-81
2023/09/23 07:59:24;;;;;;;15.98;12.75;;;12.70;99.90;;;;;;4815300;29;20042;-79
2023/09/23 08:01:50;;;;;;;16.10;11.95;;;12.80;99.90;;;;;;4816263;29;20453;-81
2023/09/23 08:04:16;;;;;;;14.93;11.35;;;12.80;99.90;;;;;;4801518;29;20038;-83
2023/09/23 08:06:41;;;;;;;18.17;12.18;;;12.80;99.90;;;;;;4801204;29;20118;-80
2023/09/23 08:09:08;;;;;;;16.60;12.00;;;12.90;99.90;;;;;;4823520;29;21134;-81
2023/09/23 08:11:34;;;;;;;16.83;11.05;;;14.00;99.90;;;;;;4814983;29;20089;-81
2023/09/23 08:14:01;;;;;;;16.45;11.27;;;12.90;99.90;;;;;;4828457;29;20128;-81
2023/09/23 08:16:26;;;;;;;12.57;11.05;;;13.00;99.90;;;;;;4799444;29;20054;-79
2023/09/23 08:18:52;;;;;;;14.02;10.85;;;13.00;99.90;;;;;;4831055;29;20494;-80
2023/09/23 08:21:18;;;;;;;15.50;10.82;;;13.00;99.90;;;;;;4796081;29;20050;-82
2023/09/23 08:23:45;;;;;;;13.32;10.10;;;13.00;99.90;;;;;;4814940;29;20121;-84
2023/09/23 08:26:10;;;;;;;14.02;10.65;;;13.00;99.90;;;;;;4829470;29;22524;-83
2023/09/23 08:28:42;;;;;;;14.35;11.35;;;13.60;99.90;;;;;;4814791;29;20117;-84
2023/09/23 08:31:08;;;;;;;15.18;11.70;;;13.60;99.90;;;;;;4825291;29;20047;-88
2023/09/23 08:33:35;;;;;;;17.25;12.10;;;13.10;99.90;;;;;;4828747;29;20055;-83
2023/09/23 08:36:04;;;;;;;15.20;11.55;;;13.20;99.90;;;;;;4818992;29;20688;-84
2023/09/23 08:38:30;;;;;;;13.02;11.27;;;13.30;99.90;;;;;;4818989;29;20111;-82
2023/09/23 08:40:56;;;;;;;14.13;10.35;;;13.40;99.90;;;;;;4824329;29;20046;-85
2023/09/23 08:43:36;;;;;;;14.13;11.32;;;13.30;99.90;;;;;;4840251;29;20054;-84
2023/09/23 08:46:09;;;;;;;14.93;9.82;;;13.40;99.90;;;;;;4815426;29;20062;-84
2023/09/23 08:48:38;;;;;;;12.30;10.15;;;13.50;99.90;;;;;;4794957;29;20610;-83
2023/09/23 08:51:06;;;;;;;14.35;10.35;;;13.50;99.90;;;;;;4791627;29;20609;-83
2023/09/23 08:53:37;;;;;;;11.38;8.82;;;13.60;99.90;;;;;;4826757;29;20141;-82
2023/09/23 08:56:05;;;;;;;13.90;9.70;;;13.70;99.90;;;;;;4816070;29;20047;-84
2023/09/23 08:58:31;;;;;;;11.60;10.23;;;13.70;99.90;;;;;;4827516;29;20052;-78
2023/09/23 09:00:57;;;;;;;13.60;10.10;;;13.80;99.90;;;;;;4792237;29;20047;-79
2023/09/23 09:03:22;;;;;;;11.20;8.32;;;13.40;99.90;;;;;;4824983;29;20042;-80
2023/09/23 09:05:48;;;;;;;9.80;8.10;;;13.80;99.90;;;;;;4829211;29;20046;-78
2023/09/23 09:08:14;;;;;;;9.27;7.95;;;13.90;99.90;;;;;;4829725;29;20048;-82
2023/09/23 09:10:41;;;;;;;8.57;7.25;;;13.90;99.90;;;;;;4799371;29;20670;-84
2023/09/23 09:13:07;;;;;;;12.60;6.30;;;14.00;99.90;;;;;;4813484;29;20054;-83
2023/09/23 09:15:37;;;;;;;9.70;5.93;;;15.40;99.90;;;;;;4800125;29;20054;-81
2023/09/23 09:18:12;;;;;;;10.68;5.50;;;14.10;99.90;;;;;;4819114;29;20057;-81
2023/09/23 09:20:38;;;;;;;6.18;5.30;;;14.20;99.90;;;;;;4825970;29;20408;-83
2023/09/23 09:23:03;;;;;;;7.72;4.78;;;14.30;99.90;;;;;;4828150;29;20049;-85
2023/09/23 09:25:32;;;;;;;6.78;4.93;;;14.40;99.90;;;;;;4828781;29;20102;-85
2023/09/23 09:27:59;;;;;;;11.63;5.13;;;14.40;99.90;;;;;;4805533;29;20062;-84
2023/09/23 09:30:26;;;;;;;5.40;3.75;;;14.50;99.90;;;;;;4828365;29;20054;-88
2023/09/23 09:32:56;;;;;;;8.52;3.63;;;14.50;99.90;;;;;;4806199;29;20047;-85
2023/09/23 09:35:21;;;;;;;6.00;4.05;;;14.60;99.90;;;;;;4805531;29;20056;-86
2023/09/23 09:37:48;;;;;;;3.63;3.33;;;14.60;99.90;;;;;;4805841;29;20034;-85
2023/09/23 09:40:19;;;;;;;5.05;2.60;;;14.60;99.90;;;;;;4827632;29;20407;-82
2023/09/23 09:42:54;;;;;;;5.53;3.45;;;14.60;99.90;;;;;;4820806;29;20050;-84
2023/09/23 09:45:24;;;;;;;6.82;3.58;;;14.20;99.90;;;;;;4829781;29;20042;-88
2023/09/23 09:47:57;;;;;;;9.05;3.53;;;14.70;99.90;;;;;;4820589;29;20070;-82
2023/09/23 09:50:25;;;;;;;8.25;2.95;;;14.70;99.90;;;;;;4805559;29;20047;-80
2023/09/23 09:52:51;;;;;;;7.40;3.05;;;14.70;99.90;;;;;;4789866;29;20050;-87
2023/09/23 09:55:19;;;;;;;4.40;3.30;;;14.80;99.90;;;;;;4820477;29;20431;-81
2023/09/23 09:57:47;;;;;;;4.63;2.47;;;14.80;99.90;;;;;;4819526;29;20050;-85
2023/09/23 10:00:27;;;;;;;5.63;3.03;;;14.80;99.90;;;;;;4806661;29;20042;-82
2023/09/23 10:03:01;;;;;;;7.38;3.78;;;14.90;99.90;;;;;;4805574;29;20138;-85
2023/09/23 10:06:00;;;;;;;7.22;2.75;;;14.90;99.90;;;;;;4804532;29;20197;-83
2023/09/23 10:08:38;;;;;;;4.45;2.80;;;14.90;99.90;;;;;;4824928;29;20059;-86
2023/09/23 10:11:14;;;;;;;8.52;2.78;;;14.90;99.90;;;;;;4833588;29;20078;-81
2023/09/23 10:13:40;;;;;;;5.43;3.00;;;14.90;99.90;;;;;;4789440;29;20081;-82
2023/09/23 10:16:19;;;;;;;4.07;2.78;;;14.90;99.90;;;;;;4835538;29;20074;-84
2023/09/23 10:19:02;;;;;;;5.05;2.75;;;14.90;99.90;;;;;;4820689;29;20107;-81
2023/09/23 10:21:28;;;;;;;6.40;3.20;;;14.80;99.90;;;;;;4806212;29;20057;-85
2023/09/23 10:24:02;;;;;;;6.30;3.17;;;14.80;99.90;;;;;;4834433;29;20065;-82
2023/09/23 10:26:29;;;;;;;5.70;3.33;;;14.70;99.90;;;;;;4831881;29;20424;-83
2023/09/23 10:29:04;;;;;;;7.53;3.63;;;14.70;99.90;;;;;;4801842;29;20034;-85
2023/09/23 10:31:31;;;;;;;8.60;3.78;;;14.70;99.90;;;;;;4819419;29;20050;-81
2023/09/23 10:34:02;;;;;;;5.20;3.15;;;14.70;99.90;;;;;;4798421;29;20457;-80
2023/09/23 10:36:31;;;;;;;8.57;3.22;;;14.70;99.90;;;;;;4832643;29;20051;-80
2023/09/23 10:38:57;;;;;;;6.72;3.20;;;14.80;99.90;;;;;;4804630;29;20049;-82
2023/09/23 10:41:43;;;;;;;3.05;2.75;;;14.90;99.90;;;;;;4803102;29;20147;-83
2023/09/23 10:44:08;;;;;;;6.53;3.47;;;15.00;99.90;;;;;;4803238;29;20047;-85
2023/09/23 10:46:34;;;;;;;9.95;3.70;;;15.10;99.90;;;;;;4800335;29;20074;-75
2023/09/23 10:49:01;;;;;;;6.13;3.13;;;15.20;99.90;;;;;;4832840;29;20046;-80
2023/09/23 10:51:29;;;;;;;6.53;3.10;;;15.30;99.90;;;;;;4804292;29;20046;-81
2023/09/23 10:53:55;;;;;;;5.05;3.08;;;15.30;99.90;;;;;;4800962;29;20049;-81
2023/09/23 10:56:24;;;;;;;5.55;2.25;;;15.40;99.90;;;;;;4819641;29;20123;-82
2023/09/23 10:58:51;;;;;;;7.50;3.00;;;16.00;99.90;;;;;;4816502;29;20061;-82
2023/09/23 11:01:24;;;;;;;23.58;5.25;;;15.40;99.90;;;;;;4847576;29;20042;-84
2023/09/23 11:03:54;;;;;;;7.03;2.90;;;14.30;99.90;;;;;;4831125;29;20658;-86
2023/09/23 11:06:20;;;;;;;5.45;2.53;;;15.30;99.90;;;;;;4802802;29;20045;-84
2023/09/23 11:08:45;;;;;;;6.47;2.40;;;15.30;99.90;;;;;;4831118;29;20067;-86
2023/09/23 11:11:12;;;;;;;5.70;3.20;;;15.20;99.90;;;;;;4817235;29;20097;-83
2023/09/23 11:13:39;;;;;;;4.68;2.70;;;15.20;99.90;;;;;;4832181;29;20055;-85
2023/09/23 11:16:09;;;;;;;6.78;2.88;;;15.20;99.90;;;;;;4817082;29;20122;-83
2023/09/23 11:18:36;;;;;;;8.57;2.90;;;15.20;99.90;;;;;;4818756;29;20057;-82
2023/09/23 11:21:02;;;;;;;2.58;1.88;;;15.20;99.90;;;;;;4832858;29;20087;-77
2023/09/23 11:23:29;;;;;;;7.05;2.08;;;15.10;99.90;;;;;;4834161;29;20046;-81
2023/09/23 11:25:55;;;;;;;4.50;1.70;;;15.20;99.90;;;;;;4834361;29;20054;-87
2023/09/23 11:28:23;;;;;;;4.30;1.60;;;15.10;99.90;;;;;;4148822;29;10000680;-82
2023/09/23 11:30:50;;;;;;;3.63;1.60;;;15.10;99.90;;;;;;4804570;29;20073;-80
2023/09/23 11:33:16;;;;;;;5.60;1.98;;;15.10;99.90;;;;;;4802283;29;20050;-81
2023/09/23 11:35:43;;;;;;;5.78;2.08;;;15.10;99.90;;;;;;4815650;29;20050;-77
2023/09/23 11:38:13;;;;;;;5.80;1.95;;;15.10;99.90;;;;;;4816371;29;20106;-77
2023/09/23 11:40:40;;;;;;;6.40;1.73;;;15.10;99.90;;;;;;4801149;29;20704;-77
2023/09/23 11:43:06;;;;;;;3.00;1.60;;;15.00;99.90;;;;;;4800281;29;20747;-76
2023/09/23 11:45:32;;;;;;;4.38;1.67;;;15.00;99.90;;;;;;4831244;29;20111;-77
2023/09/23 11:47:59;;;;;;;4.20;1.58;;;14.90;99.90;;;;;;4831856;29;20129;-79
2023/09/23 11:50:28;;;;;;;5.78;1.27;;;14.90;99.90;;;;;;4802795;29;20061;-79
2023/09/23 11:52:54;;;;;;;3.47;1.20;;;14.80;99.90;;;;;;4815974;29;20089;-77
2023/09/23 11:55:22;;;;;;;7.07;2.03;;;14.80;99.90;;;;;;4826968;29;20494;-81
2023/09/23 11:57:49;;;;;;;6.28;2.13;;;14.70;99.90;;;;;;4796318;29;20050;-80
2023/09/23 12:00:16;;;;;;;8.07;2.50;;;14.70;99.90;;;;;;4823851;29;20043;-79
2023/09/23 12:02:42;;;;;;;7.07;2.33;;;14.60;99.90;;;;;;4829094;29;20051;-78
2023/09/23 12:05:16;;;;;;;9.07;2.50;;;14.60;99.90;;;;;;4826364;29;20051;-85
2023/09/23 12:07:43;;;;;;;9.05;1.58;;;14.60;99.90;;;;;;4796345;29;20380;-82
2023/09/23 12:10:09;;;;;;;4.68;1.00;;;14.50;99.90;;;;;;4793393;29;20176;-85
2023/09/23 12:12:36;;;;;;;2.95;1.63;;;14.50;99.90;;;;;;4842927;29;20058;-83
2023/09/23 12:15:02;;;;;;;5.65;1.33;;;14.50;99.90;;;;;;4818331;29;20533;-85
2023/09/23 12:17:28;;;;;;;4.53;0.77;;;14.50;99.90;;;;;;4826616;29;20038;-83
2023/09/23 12:19:53;;;;;;;11.43;2.15;;;14.40;99.90;;;;;;4825142;29;20190;-80
2023/09/23 12:22:20;;;;;;;7.32;1.83;;;14.20;99.90;;;;;;4826810;29;20042;-79
2023/09/23 12:24:46;;;;;;;4.93;0.70;;;14.00;99.90;;;;;;4796354;29;20047;-78
2023/09/23 12:27:13;;;;;;;1.65;0.45;;;13.90;99.90;;;;;;4812146;29;20286;-79
2023/09/23 12:29:39;;;;;;;3.45;0.90;;;13.90;99.90;;;;;;4833146;29;20046;-81
2023/09/23 12:32:05;;;;;;;1.92;0.52;;;13.80;99.90;;;;;;4794543;29;20155;-85
2023/09/23 12:34:32;;;;;;;3.28;0.80;;;13.90;99.90;;;;;;4792472;29;20043;-78
2023/09/23 12:36:58;;;;;;;3.90;0.70;;;14.00;99.90;;;;;;4824785;29;20050;-78
2023/09/23 12:39:23;;;;;;;2.83;1.13;;;14.10;99.90;;;;;;4829511;29;20083;-80
2023/09/23 12:41:50;;;;;;;2.75;0.90;;;14.30;99.90;;;;;;4830730;29;20055;-81
2023/09/23 12:44:16;;;;;;;3.53;1.30;;;14.30;99.90;;;;;;4831218;29;20041;-86
2023/09/23 12:46:42;;;;;;;4.65;1.77;;;14.30;99.90;;;;;;4822713;29;20050;-82
2023/09/23 12:49:11;;;;;;;3.38;1.40;;;14.30;99.90;;;;;;4849808;29;20062;-79